createdAt,value
2022-07-25T00:02:17.302Z,77.40
2022-07-25T00:04:42.402Z,77.60
2022-07-25T00:07:06.677Z,77.00
2022-07-25T00:09:30.801Z,76.80
2022-07-25T00:11:55.852Z,77.20
2022-07-25T00:14:19.439Z,77.00
2022-07-25T00:16:43.205Z,77.00
2022-07-25T00:19:07.845Z,76.80
2022-07-25T00:21:31.536Z,78.00
2022-07-25T00:23:55.315Z,77.60
2022-07-25T00:26:18.992Z,78.40
2022-07-25T00:28:45.388Z,78.60
2022-07-25T00:31:09.094Z,77.40
2022-07-25T00:33:33.160Z,77.60
2022-07-25T00:35:56.849Z,78.40
2022-07-25T00:38:20.441Z,78.70
2022-07-25T00:40:46.240Z,77.90
2022-07-25T00:43:18.139Z,77.90
2022-07-25T00:45:43.074Z,77.30
2022-07-25T00:48:08.310Z,78.50
2022-07-25T00:50:32.678Z,78.60
2022-07-25T00:52:57.214Z,78.00
2022-07-25T00:55:23.066Z,78.20
2022-07-25T00:57:47.146Z,80.50
2022-07-25T01:00:15.702Z,79.00
2022-07-25T01:02:41.236Z,79.40
2022-07-25T01:05:05.333Z,80.90
2022-07-25T01:07:29.351Z,81.10
2022-07-25T01:09:53.328Z,80.80
2022-07-25T01:12:16.928Z,81.10
2022-07-25T01:14:40.725Z,81.30
2022-07-25T01:17:04.350Z,81.50
2022-07-25T01:19:29.704Z,82.20
2022-07-25T01:21:55.965Z,82.40
2022-07-25T01:24:19.573Z,82.30
2022-07-25T01:26:43.437Z,82.40
2022-07-25T01:29:07.427Z,82.30
2022-07-25T01:31:31.099Z,81.90
2022-07-25T01:33:54.763Z,81.50
2022-07-25T01:36:19.081Z,82.10
2022-07-25T01:38:44.292Z,82.20
2022-07-25T01:41:08.318Z,82.40
2022-07-25T01:43:32.065Z,82.50
2022-07-25T01:45:56.087Z,81.40
2022-07-25T01:48:19.872Z,81.30
2022-07-25T01:50:43.705Z,82.30
2022-07-25T01:53:07.361Z,81.90
2022-07-25T01:55:32.539Z,82.90
2022-07-25T01:57:56.346Z,82.60
2022-07-25T02:00:20.302Z,82.80
2022-07-25T02:02:45.279Z,83.10
2022-07-25T02:05:10.362Z,83.00
2022-07-25T02:07:34.001Z,83.20
2022-07-25T02:09:57.594Z,82.50
2022-07-25T02:12:22.993Z,82.20
2022-07-25T02:14:46.832Z,81.40
2022-07-25T02:17:10.634Z,81.00
2022-07-25T02:19:34.499Z,81.20
2022-07-25T02:21:58.167Z,80.70
2022-07-25T02:24:21.829Z,80.90
2022-07-25T02:26:45.413Z,81.30
2022-07-25T02:29:10.506Z,80.60
2022-07-25T02:31:34.191Z,80.60
2022-07-25T02:33:57.815Z,80.20
2022-07-25T02:36:21.491Z,81.40
2022-07-25T02:38:45.495Z,81.30
2022-07-25T02:41:09.525Z,80.80
2022-07-25T02:43:33.236Z,80.70
2022-07-25T02:45:58.369Z,80.60
2022-07-25T02:48:22.052Z,80.70
2022-07-25T02:50:45.650Z,80.80
2022-07-25T02:53:09.402Z,81.10
2022-07-25T02:55:33.189Z,81.30
2022-07-25T02:57:57.502Z,81.20
2022-07-25T03:00:21.606Z,81.50
2022-07-25T03:02:47.496Z,81.60
2022-07-25T03:05:14.971Z,80.40
2022-07-25T03:07:39.221Z,79.90
2022-07-25T03:10:02.956Z,80.10
2022-07-25T03:12:34.903Z,79.90
2022-07-25T03:14:58.451Z,79.70
2022-07-25T03:17:22.130Z,79.70
2022-07-25T03:19:47.237Z,79.90
2022-07-25T03:22:11.002Z,79.70
2022-07-25T03:24:34.624Z,79.50
2022-07-25T03:26:58.393Z,79.30
2022-07-25T03:29:22.079Z,79.50
2022-07-25T03:31:46.206Z,78.80
2022-07-25T03:34:10.253Z,79.10
2022-07-25T03:36:35.412Z,78.40
2022-07-25T03:38:59.072Z,78.20
2022-07-25T03:41:22.941Z,78.50
2022-07-25T03:43:46.771Z,77.80
2022-07-25T03:46:10.413Z,77.50
2022-07-25T03:48:34.147Z,77.10
2022-07-25T03:50:59.482Z,77.80
2022-07-25T03:53:26.217Z,77.70
2022-07-25T03:55:49.902Z,77.30
2022-07-25T03:58:13.574Z,77.50
2022-07-25T04:00:37.404Z,77.40
2022-07-25T04:03:01.242Z,77.60
2022-07-25T04:05:24.932Z,76.90
2022-07-25T04:07:48.519Z,76.90
2022-07-25T04:10:14.443Z,77.10
2022-07-25T04:12:39.031Z,76.30
2022-07-25T04:15:02.953Z,77.20
2022-07-25T04:17:26.545Z,77.30
2022-07-25T04:19:50.194Z,76.80
2022-07-25T04:22:13.831Z,76.50
2022-07-25T04:24:37.553Z,76.50
2022-07-25T04:27:02.627Z,76.40
2022-07-25T04:29:26.170Z,76.40
2022-07-25T04:31:49.887Z,76.80
2022-07-25T04:34:13.626Z,76.80
2022-07-25T04:36:37.200Z,76.20
2022-07-25T04:39:00.808Z,76.50
2022-07-25T04:41:24.427Z,76.50
2022-07-25T04:43:49.443Z,76.80
2022-07-25T04:46:13.187Z,76.00
2022-07-25T04:48:36.862Z,76.70
2022-07-25T04:51:00.494Z,76.90
2022-07-25T04:53:24.254Z,76.80
2022-07-25T04:55:47.876Z,76.50
2022-07-25T04:58:11.496Z,76.70
2022-07-25T05:00:37.115Z,77.00
2022-07-25T05:03:01.359Z,76.90
2022-07-25T05:05:25.426Z,76.80
2022-07-25T05:07:49.078Z,76.50
2022-07-25T05:10:12.647Z,74.40
2022-07-25T05:12:36.469Z,76.30
2022-07-25T05:15:00.106Z,76.70
2022-07-25T05:17:25.237Z,74.80
2022-07-25T05:19:49.030Z,74.20
2022-07-25T05:22:12.621Z,74.50
2022-07-25T05:24:37.099Z,74.80
2022-07-25T05:27:00.694Z,75.30
2022-07-25T05:29:24.508Z,75.20
2022-07-25T05:31:48.416Z,74.70
2022-07-25T05:34:13.898Z,74.90
2022-07-25T05:36:37.627Z,76.80
2022-07-25T05:39:01.418Z,76.60
2022-07-25T05:41:25.127Z,75.30
2022-07-25T05:43:48.986Z,74.50
2022-07-25T05:46:13.537Z,74.80
2022-07-25T05:48:37.245Z,75.00
2022-07-25T05:51:02.174Z,75.30
2022-07-25T05:53:26.009Z,75.40
2022-07-25T05:55:49.675Z,75.20
2022-07-25T05:58:13.327Z,75.50
2022-07-25T06:00:37.027Z,74.80
2022-07-25T06:03:01.388Z,75.40
2022-07-25T06:05:25.312Z,75.30
2022-07-25T06:07:50.301Z,74.90
2022-07-25T06:10:13.946Z,75.80
2022-07-25T06:12:37.612Z,73.70
2022-07-25T06:15:01.363Z,73.70
2022-07-25T06:17:29.165Z,71.80
2022-07-25T06:19:55.803Z,71.30
2022-07-25T06:22:20.697Z,70.20
2022-07-25T06:24:45.689Z,71.30
2022-07-25T06:27:09.870Z,70.90
2022-07-25T06:29:33.806Z,69.80
2022-07-25T06:31:57.422Z,69.40
2022-07-25T06:34:21.205Z,70.70
2022-07-25T06:36:44.885Z,68.30
2022-07-25T06:39:08.545Z,68.90
2022-07-25T06:41:33.564Z,69.50
2022-07-25T06:43:57.429Z,69.20
2022-07-25T06:46:21.105Z,70.50
2022-07-25T06:48:44.848Z,67.00
2022-07-25T06:51:08.827Z,67.50
2022-07-25T06:53:32.430Z,68.50
2022-07-25T06:55:56.148Z,66.70
2022-07-25T06:58:22.913Z,64.80
2022-07-25T07:00:50.399Z,64.90
2022-07-25T07:03:14.075Z,64.00
2022-07-25T07:05:38.023Z,63.80
2022-07-25T07:08:02.406Z,64.70
2022-07-25T07:10:26.771Z,63.90
2022-07-25T07:12:51.142Z,64.80
2022-07-25T07:15:16.720Z,64.30
2022-07-25T07:17:40.612Z,62.30
2022-07-25T07:20:06.259Z,63.40
2022-07-25T07:22:29.843Z,62.50
2022-07-25T07:24:53.633Z,63.00
2022-07-25T07:27:19.275Z,63.00
2022-07-25T07:29:43.188Z,63.40
2022-07-25T07:32:08.814Z,63.10
2022-07-25T07:34:32.499Z,63.20
2022-07-25T07:36:56.086Z,63.60
2022-07-25T07:39:19.793Z,63.20
2022-07-25T07:41:43.496Z,63.70
2022-07-25T07:44:07.405Z,62.90
2022-07-25T07:46:31.169Z,62.70
2022-07-25T07:48:56.268Z,63.40
2022-07-25T07:51:19.882Z,63.70
2022-07-25T07:54:01.010Z,63.80
2022-07-25T07:56:24.696Z,62.50
2022-07-25T07:58:48.779Z,62.50
2022-07-25T08:01:13.273Z,61.50
2022-07-25T08:03:37.426Z,62.70
2022-07-25T08:06:02.407Z,62.30
2022-07-25T08:08:31.051Z,62.40
2022-07-25T08:10:58.737Z,61.10
2022-07-25T08:13:25.649Z,62.70
2022-07-25T08:15:52.071Z,61.50
2022-07-25T08:18:17.056Z,61.40
2022-07-25T08:20:41.824Z,60.10
2022-07-25T08:23:07.573Z,60.80
2022-07-25T08:25:32.294Z,60.10
2022-07-25T08:27:58.979Z,62.40
2022-07-25T08:30:22.783Z,61.10
2022-07-25T08:32:52.219Z,63.00
2022-07-25T08:35:16.477Z,61.90
2022-07-25T08:37:40.304Z,63.40
2022-07-25T08:40:06.599Z,63.30
2022-07-25T08:42:31.253Z,62.20
2022-07-25T08:45:01.217Z,62.60
2022-07-25T08:47:25.258Z,63.30
2022-07-25T08:49:49.306Z,62.40
2022-07-25T08:52:13.325Z,63.60
2022-07-25T08:54:37.381Z,62.80
2022-07-25T08:57:02.451Z,61.50
2022-07-25T08:59:26.082Z,62.60
2022-07-25T09:01:49.737Z,61.10
2022-07-25T09:04:13.359Z,61.30
2022-07-25T09:06:37.612Z,60.90
2022-07-25T09:09:04.737Z,60.10
2022-07-25T09:11:33.064Z,58.40
2022-07-25T09:14:05.026Z,59.80
2022-07-25T09:16:34.316Z,60.00
2022-07-25T09:19:10.679Z,56.60
2022-07-25T09:21:34.360Z,57.70
2022-07-25T09:24:00.824Z,59.20
2022-07-25T09:26:24.725Z,58.00
2022-07-25T09:28:51.342Z,59.50
2022-07-25T09:31:19.125Z,56.70
2022-07-25T09:33:48.721Z,58.70
2022-07-25T09:36:13.891Z,55.90
2022-07-25T09:38:37.582Z,58.70
2022-07-25T09:41:03.687Z,55.80
2022-07-25T09:43:38.567Z,57.80
2022-07-25T09:46:02.248Z,58.60
2022-07-25T09:48:27.256Z,58.30
2022-07-25T09:50:54.176Z,57.80
2022-07-25T09:53:18.057Z,58.60
2022-07-25T09:55:42.748Z,58.30
2022-07-25T09:58:06.420Z,57.90
2022-07-25T10:00:33.082Z,57.20
2022-07-25T10:03:17.370Z,58.00
2022-07-25T10:05:57.604Z,56.90
2022-07-25T10:08:22.860Z,56.00
2022-07-25T10:10:46.732Z,55.50
2022-07-25T10:13:12.293Z,56.30
2022-07-25T10:15:51.593Z,54.70
2022-07-25T10:18:17.777Z,56.40
2022-07-25T10:20:41.979Z,54.60
2022-07-25T10:23:18.621Z,56.40
2022-07-25T10:25:47.117Z,56.70
2022-07-25T10:28:12.995Z,58.50
2022-07-25T10:30:39.195Z,55.80
2022-07-25T10:33:05.427Z,56.50
2022-07-25T10:35:29.891Z,57.40
2022-07-25T10:37:54.456Z,53.10
2022-07-25T10:40:35.220Z,54.70
2022-07-25T10:43:04.403Z,53.40
2022-07-25T10:45:38.627Z,54.70
2022-07-25T10:48:09.687Z,55.50
2022-07-25T10:50:54.425Z,53.80
2022-07-25T10:53:16.887Z,54.50
2022-07-25T10:55:41.825Z,53.90
2022-07-25T10:58:17.766Z,53.00
2022-07-25T11:00:46.046Z,51.80
2022-07-25T11:03:13.431Z,53.00
2022-07-25T11:05:47.786Z,55.30
2022-07-25T11:08:21.717Z,53.90
2022-07-25T11:10:53.742Z,55.70
2022-07-25T11:13:17.513Z,56.90
2022-07-25T11:15:41.349Z,57.70
2022-07-25T11:18:05.299Z,54.60
2022-07-25T11:20:29.157Z,53.90
2022-07-25T11:22:54.697Z,53.10
2022-07-25T11:25:19.722Z,54.60
2022-07-25T11:27:44.861Z,52.10
2022-07-25T11:30:10.709Z,52.80
2022-07-25T11:32:41.247Z,51.20
2022-07-25T11:35:06.514Z,53.70
2022-07-25T11:37:37.274Z,52.70
2022-07-25T11:40:01.311Z,54.60
2022-07-25T11:42:27.420Z,52.20
2022-07-25T11:44:54.534Z,52.40
2022-07-25T11:47:29.007Z,52.80
2022-07-25T11:49:54.301Z,55.30
2022-07-25T11:52:23.989Z,52.50
2022-07-25T11:54:53.753Z,54.50
2022-07-25T11:57:23.278Z,52.70
2022-07-25T11:59:47.007Z,54.00
2022-07-25T12:02:24.448Z,54.80
2022-07-25T12:04:56.569Z,55.50
2022-07-25T12:07:20.245Z,54.80
2022-07-25T12:09:44.088Z,54.80
2022-07-25T12:12:08.632Z,53.60
2022-07-25T12:14:43.804Z,54.00
2022-07-25T12:17:08.026Z,56.00
2022-07-25T12:19:33.119Z,56.10
2022-07-25T12:22:03.750Z,56.50
2022-07-25T12:24:27.306Z,56.50
2022-07-25T12:26:50.969Z,56.30
2022-07-25T12:29:14.582Z,54.40
2022-07-25T12:31:38.374Z,57.50
2022-07-25T12:34:01.950Z,56.40
2022-07-25T12:36:27.177Z,56.60
2022-07-25T12:38:50.878Z,56.50
2022-07-25T12:41:17.776Z,58.10
2022-07-25T12:43:41.884Z,57.00
2022-07-25T12:46:07.526Z,55.50
2022-07-25T12:48:31.289Z,57.70
2022-07-25T12:50:55.241Z,55.00
2022-07-25T12:53:20.711Z,55.30
2022-07-25T12:55:44.429Z,57.30
2022-07-25T12:58:09.001Z,58.00
2022-07-25T13:00:32.613Z,56.30
2022-07-25T13:02:57.377Z,55.50
2022-07-25T13:05:21.593Z,54.70
2022-07-25T13:07:45.343Z,53.90
2022-07-25T13:10:12.691Z,54.40
2022-07-25T13:12:36.439Z,53.90
2022-07-25T13:15:00.249Z,57.60
2022-07-25T13:17:27.457Z,55.00
2022-07-25T13:19:51.518Z,55.50
2022-07-25T13:22:15.148Z,55.50
2022-07-25T13:24:39.346Z,55.50
2022-07-25T13:27:06.557Z,54.50
2022-07-25T13:29:30.218Z,56.60
2022-07-25T13:31:56.984Z,54.10
2022-07-25T13:34:20.874Z,52.00
2022-07-25T13:36:44.584Z,54.70
2022-07-25T13:39:09.020Z,54.70
2022-07-25T13:41:35.942Z,54.00
2022-07-25T13:44:01.195Z,54.30
2022-07-25T13:46:25.265Z,54.00
2022-07-25T13:48:48.995Z,53.80
2022-07-25T13:51:13.140Z,53.80
2022-07-25T13:53:36.833Z,53.60
2022-07-25T13:56:01.480Z,54.30
2022-07-25T13:58:25.175Z,56.60
2022-07-25T14:00:50.345Z,56.60
2022-07-25T14:03:14.078Z,56.40
2022-07-25T14:05:39.665Z,57.60
2022-07-25T14:08:03.692Z,56.10
2022-07-25T14:10:27.807Z,55.80
2022-07-25T14:12:51.309Z,57.40
2022-07-25T14:15:14.974Z,57.10
2022-07-25T14:17:40.041Z,55.50
2022-07-25T14:20:04.403Z,55.00
2022-07-25T14:22:28.198Z,57.10
2022-07-25T14:24:52.210Z,56.90
2022-07-25T14:27:16.447Z,57.60
2022-07-25T14:29:40.031Z,57.60
2022-07-25T14:32:03.670Z,56.70
2022-07-25T14:34:28.771Z,58.70
2022-07-25T14:36:52.404Z,58.70
2022-07-25T14:39:17.264Z,57.40
2022-07-25T14:41:40.903Z,58.80
2022-07-25T14:44:04.475Z,57.50
2022-07-25T14:46:29.264Z,56.40
2022-07-25T14:48:54.163Z,57.80
2022-07-25T14:51:19.993Z,58.60
2022-07-25T14:53:43.978Z,58.00
2022-07-25T14:56:08.505Z,60.40
2022-07-25T14:58:32.595Z,61.00
2022-07-25T15:00:56.235Z,60.40
2022-07-25T15:03:20.004Z,59.90
2022-07-25T15:05:43.932Z,59.20
2022-07-25T15:08:09.505Z,60.50
2022-07-25T15:10:33.803Z,60.20
2022-07-25T15:13:20.454Z,59.60
2022-07-25T15:15:41.262Z,60.60
2022-07-25T15:18:05.300Z,60.00
2022-07-25T15:20:28.921Z,59.10
2022-07-25T15:22:52.526Z,58.20
2022-07-25T15:25:45.522Z,58.90
2022-07-25T15:28:01.301Z,55.10
2022-07-25T15:30:29.276Z,57.60
2022-07-25T15:32:53.119Z,57.70
2022-07-25T15:35:16.883Z,58.00
2022-07-25T15:37:40.501Z,56.40
2022-07-25T15:40:04.610Z,56.30
2022-07-25T15:42:29.803Z,56.90
2022-07-25T15:45:15.043Z,55.50
2022-07-25T15:47:37.413Z,56.10
2022-07-25T15:50:01.200Z,56.00
2022-07-25T15:52:26.002Z,56.00
2022-07-25T15:54:49.839Z,58.10
2022-07-25T15:57:13.589Z,55.30
2022-07-25T15:59:38.595Z,56.90
2022-07-25T16:02:02.248Z,56.60
2022-07-25T16:04:34.203Z,53.80
2022-07-25T16:06:58.422Z,54.90
2022-07-25T16:09:21.996Z,55.80
2022-07-25T16:11:45.565Z,54.90
2022-07-25T16:14:10.039Z,54.30
2022-07-25T16:16:33.858Z,53.10
2022-07-25T16:18:58.570Z,54.60
2022-07-25T16:21:23.553Z,53.50
2022-07-25T16:23:47.108Z,53.10
2022-07-25T16:26:11.765Z,54.20
2022-07-25T16:28:39.270Z,53.60
2022-07-25T16:31:03.270Z,54.40
2022-07-25T16:33:27.492Z,52.10
2022-07-25T16:35:51.135Z,53.50
2022-07-25T16:38:16.172Z,53.40
2022-07-25T16:40:39.826Z,52.70
2022-07-25T16:43:03.603Z,53.20
2022-07-25T16:45:27.245Z,52.30
2022-07-25T16:47:50.832Z,53.80
2022-07-25T16:50:14.429Z,53.40
2022-07-25T16:52:38.270Z,54.20
2022-07-25T16:55:03.405Z,51.80
2022-07-25T16:57:27.134Z,53.00
2022-07-25T16:59:50.742Z,52.10
2022-07-25T17:02:14.476Z,52.30
2022-07-25T17:04:38.135Z,51.60
2022-07-25T17:07:04.992Z,53.20
2022-07-25T17:09:28.665Z,50.30
2022-07-25T17:11:53.828Z,51.10
2022-07-25T17:14:17.469Z,51.60
2022-07-25T17:16:42.058Z,50.30
2022-07-25T17:19:05.997Z,50.50
2022-07-25T17:21:29.842Z,50.70
2022-07-25T17:23:53.476Z,51.80
2022-07-25T17:26:17.080Z,50.00
2022-07-25T17:28:42.202Z,51.30
2022-07-25T17:31:06.175Z,49.90
2022-07-25T17:33:29.795Z,51.80
2022-07-25T17:35:53.454Z,51.20
2022-07-25T17:38:18.404Z,51.60
2022-07-25T17:40:43.743Z,51.40
2022-07-25T17:43:07.661Z,51.30
2022-07-25T17:45:32.726Z,51.00
2022-07-25T17:47:56.488Z,50.90
2022-07-25T17:50:27.182Z,49.80
2022-07-25T17:52:52.639Z,50.70
2022-07-25T17:55:16.282Z,49.10
2022-07-25T17:57:43.175Z,48.90
2022-07-25T18:00:08.982Z,48.40
2022-07-25T18:02:36.809Z,48.80
2022-07-25T18:05:00.708Z,48.10
2022-07-25T18:07:24.471Z,47.70
2022-07-25T18:09:48.160Z,49.10
2022-07-25T18:12:11.899Z,51.70
2022-07-25T18:14:35.505Z,50.40
2022-07-25T18:16:59.719Z,51.00
2022-07-25T18:19:26.448Z,50.30
2022-07-25T18:21:50.139Z,50.60
2022-07-25T18:24:13.910Z,50.50
2022-07-25T18:26:37.596Z,50.70
2022-07-25T18:29:01.615Z,51.20
2022-07-25T18:31:25.324Z,51.30
2022-07-25T18:33:49.624Z,51.20
2022-07-25T18:36:14.754Z,52.10
2022-07-25T18:38:38.657Z,51.90
2022-07-25T18:41:27.981Z,50.70
2022-07-25T18:43:48.362Z,51.00
2022-07-25T18:46:13.138Z,51.70
2022-07-25T18:48:38.298Z,52.00
2022-07-25T18:51:02.304Z,51.50
2022-07-25T18:53:27.262Z,52.80
2022-07-25T18:55:51.150Z,52.20
2022-07-25T18:58:16.074Z,52.00
2022-07-25T19:00:39.841Z,52.10
2022-07-25T19:03:03.474Z,51.80
2022-07-25T19:05:27.182Z,52.30
2022-07-25T19:07:51.278Z,52.20
2022-07-25T19:10:16.432Z,51.80
2022-07-25T19:12:40.126Z,52.70
2022-07-25T19:15:04.161Z,53.00
2022-07-25T19:17:27.983Z,53.00
2022-07-25T19:19:52.131Z,54.70
2022-07-25T19:22:15.913Z,53.90
2022-07-25T19:24:39.630Z,55.50
2022-07-25T19:27:05.508Z,53.30
2022-07-25T19:29:29.163Z,52.90
2022-07-25T19:31:52.758Z,54.30
2022-07-25T19:34:16.510Z,53.60
2022-07-25T19:36:40.279Z,52.70
2022-07-25T19:39:04.152Z,52.70
2022-07-25T19:41:28.016Z,53.00
2022-07-25T19:43:53.843Z,53.10
2022-07-25T19:46:17.546Z,53.50
2022-07-25T19:48:41.173Z,52.90
2022-07-25T19:51:05.592Z,53.80
2022-07-25T19:53:29.189Z,53.90
2022-07-25T19:55:52.799Z,54.10
2022-07-25T19:58:16.439Z,52.60
2022-07-25T20:00:41.666Z,53.30
2022-07-25T20:03:06.956Z,52.20
2022-07-25T20:05:30.596Z,54.10
2022-07-25T20:07:54.321Z,53.50
2022-07-25T20:10:18.349Z,54.30
2022-07-25T20:12:42.017Z,54.60
2022-07-25T20:15:07.348Z,53.70
2022-07-25T20:17:32.359Z,52.60
2022-07-25T20:19:56.066Z,54.10
2022-07-25T20:22:19.982Z,55.00
2022-07-25T20:24:43.768Z,53.20
2022-07-25T20:27:07.690Z,53.60
2022-07-25T20:29:31.347Z,54.10
2022-07-25T20:31:55.581Z,53.90
2022-07-25T20:34:21.274Z,54.10
2022-07-25T20:36:44.916Z,54.40
2022-07-25T20:39:10.151Z,54.70
2022-07-25T20:41:34.439Z,55.40
2022-07-25T20:43:58.501Z,54.60
2022-07-25T20:46:22.353Z,55.20
2022-07-25T20:48:46.577Z,54.00
2022-07-25T20:51:13.230Z,54.20
2022-07-25T20:53:37.227Z,55.00
2022-07-25T20:56:02.570Z,54.50
2022-07-25T20:58:26.358Z,55.00
2022-07-25T21:00:50.151Z,55.20
2022-07-25T21:03:13.826Z,55.90
2022-07-25T21:05:39.434Z,56.20
2022-07-25T21:08:04.903Z,56.20
2022-07-25T21:10:28.729Z,55.60
2022-07-25T21:12:52.506Z,56.00
2022-07-25T21:15:16.816Z,55.70
2022-07-25T21:17:41.698Z,57.00
2022-07-25T21:20:07.553Z,57.80
2022-07-25T21:22:31.186Z,57.40
2022-07-25T21:24:56.353Z,57.00
2022-07-25T21:27:20.620Z,58.30
2022-07-25T21:29:44.365Z,59.60
2022-07-25T21:32:09.194Z,57.80
2022-07-25T21:34:32.917Z,59.10
2022-07-25T21:36:56.873Z,60.60
2022-07-25T21:39:20.629Z,61.70
2022-07-25T21:41:46.687Z,61.30
2022-07-25T21:44:10.694Z,60.60
2022-07-25T21:46:34.379Z,61.30
2022-07-25T21:49:16.050Z,59.60
2022-07-25T21:51:40.886Z,62.40
2022-07-25T21:54:05.053Z,59.80
2022-07-25T21:56:28.752Z,61.80
2022-07-25T21:58:53.949Z,61.50
2022-07-25T22:01:19.898Z,61.30
2022-07-25T22:03:43.601Z,61.60
2022-07-25T22:06:07.594Z,61.90
2022-07-25T22:08:31.273Z,63.40
2022-07-25T22:10:54.943Z,63.00
2022-07-25T22:13:19.531Z,63.10
2022-07-25T22:15:44.635Z,63.20
2022-07-25T22:18:08.467Z,63.20
2022-07-25T22:20:32.152Z,63.90
2022-07-25T22:22:55.707Z,64.00
2022-07-25T22:25:19.637Z,63.70
2022-07-25T22:27:43.462Z,63.90
2022-07-25T22:30:08.917Z,63.40
2022-07-25T22:32:34.166Z,63.70
2022-07-25T22:34:57.821Z,64.90
2022-07-25T22:37:21.412Z,64.70
2022-07-25T22:39:45.049Z,65.70
2022-07-25T22:42:08.754Z,64.90
2022-07-25T22:44:32.503Z,65.30
2022-07-25T22:46:56.204Z,66.40
2022-07-25T22:49:23.336Z,66.60
2022-07-25T22:51:47.094Z,65.90
2022-07-25T22:54:10.786Z,67.10
2022-07-25T22:56:34.484Z,66.50
2022-07-25T22:58:58.737Z,66.10
2022-07-25T23:01:23.231Z,66.20
2022-07-25T23:03:47.614Z,65.80
2022-07-25T23:06:13.075Z,65.90
2022-07-25T23:08:36.802Z,65.70
2022-07-25T23:11:00.431Z,67.40
2022-07-25T23:13:24.187Z,67.40
2022-07-25T23:15:49.907Z,67.50
2022-07-25T23:18:14.286Z,67.10
2022-07-25T23:20:38.006Z,66.60
2022-07-25T23:23:03.036Z,66.10
2022-07-25T23:25:27.046Z,66.70
2022-07-25T23:27:51.041Z,67.80
2022-07-25T23:30:16.567Z,67.60
2022-07-25T23:32:40.215Z,68.10
2022-07-25T23:35:03.970Z,67.20
2022-07-25T23:37:27.662Z,68.00
2022-07-25T23:39:52.642Z,67.70
2022-07-25T23:42:16.451Z,68.30
2022-07-25T23:44:42.107Z,68.40
2022-07-25T23:47:10.189Z,69.30
2022-07-25T23:49:35.022Z,68.00
2022-07-25T23:51:58.607Z,68.20
2022-07-25T23:54:22.274Z,68.80
2022-07-25T23:56:47.342Z,68.40
2022-07-25T23:59:13.222Z,68.70
